createdAt,value
2022-08-08T00:01:06.570Z,100922.56
2022-08-08T00:05:00.825Z,100926.91
2022-08-08T00:08:36.768Z,100919.03
2022-08-08T00:12:07.231Z,100921.38
2022-08-08T00:15:56.549Z,100907.56
2022-08-08T00:19:46.670Z,100907.91
2022-08-08T00:23:17.136Z,100887.50
2022-08-08T00:26:54.802Z,100895.91
2022-08-08T00:30:23.963Z,100890.44
2022-08-08T00:34:17.840Z,100894.81
2022-08-08T00:38:01.892Z,100890.97
2022-08-08T00:42:08.242Z,100897.00
2022-08-08T00:45:50.803Z,100894.84
2022-08-08T00:49:58.376Z,100885.06
2022-08-08T00:54:04.647Z,100867.97
2022-08-08T00:58:30.831Z,100860.28
2022-08-08T01:03:57.950Z,100851.22
2022-08-08T01:06:47.477Z,100858.91
2022-08-08T01:10:45.816Z,100864.13
2022-08-08T01:14:53.488Z,100849.16
2022-08-08T01:18:52.884Z,100852.38
2022-08-08T01:22:35.466Z,100831.81
2022-08-08T01:26:36.845Z,100819.47
2022-08-08T01:30:20.865Z,100805.84
2022-08-08T01:34:00.430Z,100802.25
2022-08-08T01:37:58.244Z,100791.66
2022-08-08T01:41:34.486Z,100790.53
2022-08-08T01:45:56.814Z,100788.22
2022-08-08T01:49:37.823Z,100792.66
2022-08-08T01:55:14.740Z,100778.16
2022-08-08T01:57:24.797Z,100775.81
2022-08-08T02:01:54.501Z,100762.53
2022-08-08T02:05:55.796Z,100751.47
2022-08-08T02:10:01.948Z,100753.00
2022-08-08T02:13:53.212Z,100744.91
2022-08-08T02:17:50.329Z,100743.06
2022-08-08T02:21:44.497Z,100749.19
2022-08-08T02:25:28.140Z,100744.22
2022-08-08T02:29:18.795Z,100745.25
2022-08-08T02:32:55.891Z,100753.44
2022-08-08T02:36:54.753Z,100757.78
2022-08-08T02:40:41.066Z,100763.63
2022-08-08T02:44:39.318Z,100768.72
2022-08-08T02:48:27.442Z,100770.69
2022-08-08T02:52:32.669Z,100774.81
2022-08-08T02:56:15.816Z,100767.56
2022-08-08T03:00:15.909Z,100765.38
2022-08-08T03:05:04.757Z,100761.66
2022-08-08T03:08:30.857Z,100753.38
2022-08-08T03:12:36.521Z,100761.56
2022-08-08T03:16:35.323Z,100767.44
2022-08-08T03:20:23.835Z,100767.44
2022-08-08T03:24:00.112Z,100766.72
2022-08-08T03:27:35.904Z,100764.19
2022-08-08T03:31:07.834Z,100765.56
2022-08-08T03:34:52.887Z,100775.88
2022-08-08T03:38:57.202Z,100778.59
2022-08-08T03:42:27.938Z,100785.94
2022-08-08T03:46:03.188Z,100785.09
2022-08-08T03:49:58.343Z,100788.34
2022-08-08T03:53:42.288Z,100794.78
2022-08-08T03:58:31.722Z,100793.75
2022-08-08T04:01:20.882Z,100793.72
2022-08-08T04:04:40.974Z,100790.22
2022-08-08T04:08:06.856Z,100801.03
2022-08-08T04:11:32.824Z,100788.78
2022-08-08T04:15:11.904Z,100772.59
2022-08-08T04:18:41.966Z,100790.94
2022-08-08T04:22:13.698Z,100776.91
2022-08-08T04:25:38.410Z,100775.41
2022-08-08T04:29:03.840Z,100772.53
2022-08-08T04:32:30.198Z,100783.28
2022-08-08T04:35:51.621Z,100769.25
2022-08-08T04:40:03.607Z,100754.38
2022-08-08T04:43:01.910Z,100765.25
2022-08-08T04:46:31.203Z,100758.47
2022-08-08T04:50:01.126Z,100754.72
2022-08-08T04:54:27.063Z,100753.63
2022-08-08T04:57:14.961Z,100735.69
2022-08-08T05:00:40.944Z,100746.78
2022-08-08T05:04:07.698Z,100755.69
2022-08-08T05:07:41.958Z,100755.97
2022-08-08T05:11:06.879Z,100764.91
2022-08-08T05:14:31.993Z,100762.97
2022-08-08T05:17:56.952Z,100754.53
2022-08-08T05:21:22.975Z,100746.94
2022-08-08T05:24:48.255Z,100752.59
2022-08-08T05:28:15.014Z,100758.00
2022-08-08T05:32:03.444Z,100772.25
2022-08-08T05:35:17.922Z,100786.34
2022-08-08T05:38:52.898Z,100793.06
2022-08-08T05:42:19.410Z,100790.09
2022-08-08T05:45:53.272Z,100790.00
2022-08-08T05:49:19.921Z,100807.66
2022-08-08T05:52:44.887Z,100820.31
2022-08-08T05:56:15.260Z,100822.78
2022-08-08T06:00:00.533Z,100832.09
2022-08-08T06:03:39.030Z,100826.81
2022-08-08T06:07:08.898Z,100843.00
2022-08-08T06:10:34.908Z,100835.88
2022-08-08T06:14:03.979Z,100841.56
2022-08-08T06:17:50.520Z,100837.59
2022-08-08T06:21:28.601Z,100838.47
2022-08-08T06:24:58.963Z,100832.28
2022-08-08T06:28:33.996Z,100833.84
2022-08-08T06:32:09.943Z,100836.25
2022-08-08T06:36:07.522Z,100829.66
2022-08-08T06:39:23.946Z,100843.38
2022-08-08T06:42:49.969Z,100841.59
2022-08-08T06:46:24.045Z,100839.09
2022-08-08T06:49:55.442Z,100854.63
2022-08-08T06:53:20.461Z,100853.94
2022-08-08T06:56:51.282Z,100852.00
2022-08-08T07:00:29.863Z,100849.31
2022-08-08T07:04:39.841Z,100846.78
2022-08-08T07:08:08.776Z,100843.13
2022-08-08T07:11:46.257Z,100843.63
2022-08-08T07:15:32.136Z,100827.78
2022-08-08T07:19:17.029Z,100845.91
2022-08-08T07:23:01.945Z,100833.31
2022-08-08T07:26:32.669Z,100832.47
2022-08-08T07:30:05.974Z,100832.78
2022-08-08T07:33:53.349Z,100827.72
2022-08-08T07:37:23.012Z,100836.28
2022-08-08T07:40:47.253Z,100843.34
2022-08-08T07:44:37.262Z,100842.59
2022-08-08T07:48:00.937Z,100833.03
2022-08-08T07:51:45.129Z,100853.00
2022-08-08T07:55:39.943Z,100843.06
2022-08-08T07:59:06.978Z,100855.31
2022-08-08T08:02:38.736Z,100856.56
2022-08-08T08:06:05.039Z,100858.84
2022-08-08T08:09:35.946Z,100864.06
2022-08-08T08:13:43.068Z,100862.34
2022-08-08T08:17:12.065Z,100857.44
2022-08-08T08:20:45.009Z,100846.91
2022-08-08T08:24:10.657Z,100848.53
2022-08-08T08:27:36.003Z,100848.22
2022-08-08T08:30:53.617Z,100844.94
2022-08-08T08:34:13.988Z,100854.38
2022-08-08T08:37:59.399Z,100850.88
2022-08-08T08:41:26.994Z,100855.38
2022-08-08T08:44:55.970Z,100841.31
2022-08-08T08:48:21.031Z,100847.22
2022-08-08T08:51:51.587Z,100838.59
2022-08-08T08:55:16.123Z,100851.47
2022-08-08T08:58:50.987Z,100861.25
2022-08-08T09:02:20.110Z,100871.44
2022-08-08T09:05:54.211Z,100866.44
2022-08-08T09:09:35.184Z,100863.06
2022-08-08T09:13:11.017Z,100862.16
2022-08-08T09:16:35.055Z,100858.09
2022-08-08T09:21:56.001Z,100862.81
2022-08-08T09:23:48.009Z,100862.75
2022-08-08T09:27:20.794Z,100856.09
2022-08-08T09:30:47.033Z,100860.09
2022-08-08T09:34:32.845Z,100867.44
2022-08-08T09:38:17.857Z,100868.34
2022-08-08T09:42:21.178Z,100859.28
2022-08-08T09:46:16.942Z,100864.00
2022-08-08T09:49:55.059Z,100863.94
2022-08-08T09:53:56.438Z,100868.59
2022-08-08T09:57:23.450Z,100856.88
2022-08-08T10:00:57.136Z,100857.94
2022-08-08T10:04:41.304Z,100854.13
2022-08-08T10:08:09.922Z,100846.09
2022-08-08T10:12:26.859Z,100845.59
2022-08-08T10:15:25.103Z,100837.34
2022-08-08T10:18:55.290Z,100846.91
2022-08-08T10:22:23.096Z,100847.34
2022-08-08T10:25:57.051Z,100830.63
2022-08-08T10:29:28.180Z,100824.41
2022-08-08T10:32:54.985Z,100817.44
2022-08-08T10:36:22.489Z,100838.28
2022-08-08T10:39:54.809Z,100823.06
2022-08-08T10:43:22.850Z,100826.81
2022-08-08T10:46:48.490Z,100815.44
2022-08-08T10:50:23.538Z,100830.59
2022-08-08T10:53:57.995Z,100818.25
2022-08-08T10:57:41.342Z,100818.34
2022-08-08T11:01:10.708Z,100807.38
2022-08-08T11:04:38.906Z,100801.50
2022-08-08T11:08:37.733Z,100796.66
2022-08-08T11:12:06.347Z,100793.00
2022-08-08T11:15:54.811Z,100800.00
2022-08-08T11:19:24.007Z,100816.13
2022-08-08T11:22:48.049Z,100806.25
2022-08-08T11:26:12.065Z,100803.28
2022-08-08T11:29:58.375Z,100788.88
2022-08-08T11:33:51.474Z,100785.13
2022-08-08T11:37:14.700Z,100782.50
2022-08-08T11:40:40.116Z,100779.00
2022-08-08T11:44:05.176Z,100776.53
2022-08-08T11:47:39.917Z,100776.16
2022-08-08T11:51:38.504Z,100769.31
2022-08-08T11:55:00.039Z,100780.63
2022-08-08T11:58:26.070Z,100791.63
2022-08-08T12:01:51.063Z,100795.59
2022-08-08T12:05:22.448Z,100802.78
2022-08-08T12:08:50.112Z,100791.78
2022-08-08T12:12:16.911Z,100785.34
2022-08-08T12:15:57.081Z,100782.91
2022-08-08T12:19:37.670Z,100768.53
2022-08-08T12:23:24.990Z,100781.84
2022-08-08T12:27:00.088Z,100781.50
2022-08-08T12:30:27.107Z,100781.25
2022-08-08T12:34:02.661Z,100763.94
2022-08-08T12:37:44.162Z,100779.84
2022-08-08T12:41:35.217Z,100767.34
2022-08-08T12:45:58.244Z,100772.84
2022-08-08T12:49:22.266Z,100762.09
2022-08-08T12:52:50.141Z,100753.31
2022-08-08T12:56:26.062Z,100758.25
2022-08-08T13:00:04.379Z,100752.97
2022-08-08T13:03:51.760Z,100741.03
2022-08-08T13:08:03.899Z,100769.34
2022-08-08T13:11:11.090Z,100766.28
2022-08-08T13:14:35.096Z,100765.94
2022-08-08T13:18:11.181Z,100771.31
2022-08-08T13:21:53.802Z,100748.53
2022-08-08T13:25:35.090Z,100756.94
2022-08-08T13:29:00.098Z,100760.34
2022-08-08T13:32:25.346Z,100765.94
2022-08-08T13:35:54.064Z,100773.19
2022-08-08T13:39:18.139Z,100779.94
2022-08-08T13:42:44.101Z,100773.19
2022-08-08T13:46:08.103Z,100772.50
2022-08-08T13:50:34.830Z,100760.19
2022-08-08T13:53:53.226Z,100745.13
2022-08-08T13:58:03.487Z,100738.47
2022-08-08T14:01:09.116Z,100735.22
2022-08-08T14:04:38.196Z,100737.91
2022-08-08T14:08:29.669Z,100746.19
2022-08-08T14:11:55.101Z,100741.75
2022-08-08T14:15:20.125Z,100735.44
2022-08-08T14:18:51.944Z,100734.25
2022-08-08T14:22:29.783Z,100736.25
2022-08-08T14:26:10.314Z,100724.09
2022-08-08T14:29:39.423Z,100697.81
2022-08-08T14:33:15.241Z,100705.41
2022-08-08T14:36:54.693Z,100698.03
2022-08-08T14:40:19.163Z,100687.41
2022-08-08T14:44:09.782Z,100686.59
2022-08-08T14:47:36.275Z,100693.59
2022-08-08T14:51:02.130Z,100689.75
2022-08-08T14:54:29.417Z,100696.28
2022-08-08T14:58:03.287Z,100690.69
2022-08-08T15:01:40.521Z,100681.22
2022-08-08T15:05:08.017Z,100683.19
2022-08-08T15:08:38.530Z,100677.44
2022-08-08T15:12:22.299Z,100658.78
2022-08-08T15:16:02.638Z,100655.97
2022-08-08T15:19:28.858Z,100662.75
2022-08-08T15:22:55.126Z,100660.88
2022-08-08T15:26:19.151Z,100657.03
2022-08-08T15:29:44.208Z,100640.31
2022-08-08T15:33:11.149Z,100641.16
2022-08-08T15:36:45.144Z,100648.13
2022-08-08T15:40:11.212Z,100643.13
2022-08-08T15:43:39.137Z,100641.50
2022-08-08T15:47:05.141Z,100655.84
2022-08-08T15:50:30.136Z,100645.44
2022-08-08T15:53:54.154Z,100636.69
2022-08-08T15:57:21.189Z,100636.69
2022-08-08T16:00:47.153Z,100643.59
2022-08-08T16:04:15.103Z,100626.53
2022-08-08T16:07:53.033Z,100606.31
2022-08-08T16:13:04.198Z,100611.47
2022-08-08T16:15:02.112Z,100608.44
2022-08-08T16:18:26.144Z,100594.91
2022-08-08T16:21:54.071Z,100609.13
2022-08-08T16:25:20.203Z,100600.25
2022-08-08T16:28:44.170Z,100609.47
2022-08-08T16:32:13.074Z,100603.03
2022-08-08T16:35:49.551Z,100598.72
2022-08-08T16:39:27.750Z,100594.16
2022-08-08T16:42:58.119Z,100598.59
2022-08-08T16:46:39.246Z,100599.53
2022-08-08T16:50:08.665Z,100589.13
2022-08-08T16:55:23.146Z,100582.25
2022-08-08T16:57:23.534Z,100586.34
2022-08-08T17:01:09.191Z,100586.69
2022-08-08T17:04:35.181Z,100583.19
2022-08-08T17:08:00.207Z,100582.59
2022-08-08T17:11:28.445Z,100584.72
2022-08-08T17:15:20.097Z,100573.72
2022-08-08T17:18:46.154Z,100580.34
2022-08-08T17:22:12.442Z,100587.28
2022-08-08T17:25:47.710Z,100585.63
2022-08-08T17:29:24.839Z,100587.03
2022-08-08T17:34:34.974Z,100583.66
2022-08-08T17:36:36.465Z,100579.22
2022-08-08T17:40:05.925Z,100581.44
2022-08-08T17:44:01.130Z,100578.84
2022-08-08T17:47:23.188Z,100565.78
2022-08-08T17:50:41.233Z,100570.09
2022-08-08T17:54:09.155Z,100572.06
2022-08-08T17:57:38.537Z,100571.38
2022-08-08T18:01:03.193Z,100577.03
2022-08-08T18:04:31.160Z,100574.06
2022-08-08T18:08:02.573Z,100572.25
2022-08-08T18:11:30.238Z,100585.91
2022-08-08T18:15:01.224Z,100594.31
2022-08-08T18:18:29.222Z,100597.00
2022-08-08T18:22:00.971Z,100605.75
2022-08-08T18:25:25.177Z,100615.78
2022-08-08T18:28:54.342Z,100608.19
2022-08-08T18:32:21.220Z,100617.78
2022-08-08T18:35:48.746Z,100624.19
2022-08-08T18:39:27.882Z,100613.56
2022-08-08T18:42:54.277Z,100634.59
2022-08-08T18:46:54.104Z,100615.31
2022-08-08T18:50:03.336Z,100619.78
2022-08-08T18:54:00.329Z,100638.06
2022-08-08T18:57:16.225Z,100640.31
2022-08-08T19:00:40.183Z,100631.06
2022-08-08T19:04:12.841Z,100654.69
2022-08-08T19:07:37.534Z,100646.97
2022-08-08T19:11:02.417Z,100640.06
2022-08-08T19:14:26.241Z,100648.63
2022-08-08T19:18:30.866Z,100636.56
2022-08-08T19:21:49.570Z,100664.03
2022-08-08T19:26:01.701Z,100653.03
2022-08-08T19:28:59.271Z,100667.88
2022-08-08T19:32:23.280Z,100677.31
2022-08-08T19:36:08.259Z,100668.94
2022-08-08T19:39:35.248Z,100682.81
2022-08-08T19:43:11.776Z,100674.19
2022-08-08T19:46:37.178Z,100673.59
2022-08-08T19:50:02.450Z,100670.91
2022-08-08T19:53:50.983Z,100667.88
2022-08-08T19:56:58.214Z,100657.50
2022-08-08T20:00:30.293Z,100662.06
2022-08-08T20:04:01.789Z,100643.59
2022-08-08T20:08:28.279Z,100654.31
2022-08-08T20:11:11.284Z,100635.66
2022-08-08T20:14:36.033Z,100641.25
2022-08-08T20:18:15.493Z,100636.56
2022-08-08T20:21:40.245Z,100638.88
2022-08-08T20:25:05.220Z,100625.34
2022-08-08T20:28:33.065Z,100626.25
2022-08-08T20:32:09.970Z,100629.63
2022-08-08T20:35:58.271Z,100651.50
2022-08-08T20:39:22.263Z,100655.59
2022-08-08T20:42:47.226Z,100665.16
2022-08-08T20:46:20.222Z,100663.91
2022-08-08T20:49:46.817Z,100672.88
2022-08-08T20:53:16.333Z,100668.91
2022-08-08T20:57:16.581Z,100674.84
2022-08-08T21:00:31.258Z,100672.69
2022-08-08T21:04:01.694Z,100668.81
2022-08-08T21:07:47.607Z,100657.09
2022-08-08T21:11:11.287Z,100653.78
2022-08-08T21:14:36.218Z,100650.75
2022-08-08T21:18:01.236Z,100647.28
2022-08-08T21:21:40.294Z,100648.63
2022-08-08T21:25:10.519Z,100652.91
2022-08-08T21:28:38.447Z,100654.38
2022-08-08T21:32:02.252Z,100637.78
2022-08-08T21:36:16.065Z,100645.03
2022-08-08T21:39:14.713Z,100641.69
2022-08-08T21:42:40.275Z,100639.72
2022-08-08T21:48:08.146Z,100645.84
2022-08-08T21:49:47.257Z,100654.19
2022-08-08T21:54:34.462Z,100644.50
2022-08-08T21:56:57.285Z,100652.91
2022-08-08T22:00:26.105Z,100650.16
2022-08-08T22:03:51.217Z,100661.38
2022-08-08T22:07:10.634Z,100649.19
2022-08-08T22:10:35.257Z,100652.84
2022-08-08T22:14:00.280Z,100648.81
2022-08-08T22:17:26.328Z,100644.81
2022-08-08T22:20:51.305Z,100644.66
2022-08-08T22:24:17.285Z,100648.91
2022-08-08T22:28:04.465Z,100649.47
2022-08-08T22:31:31.298Z,100643.94
2022-08-08T22:35:00.316Z,100636.09
2022-08-08T22:38:29.297Z,100657.19
2022-08-08T22:41:54.305Z,100647.53
2022-08-08T22:45:22.255Z,100641.44
2022-08-08T22:48:46.265Z,100658.75
2022-08-08T22:52:10.277Z,100654.47
2022-08-08T22:55:58.588Z,100656.13
2022-08-08T22:59:12.283Z,100640.41
2022-08-08T23:02:42.321Z,100641.38
2022-08-08T23:06:14.349Z,100644.69
2022-08-08T23:09:55.279Z,100635.88
2022-08-08T23:13:23.320Z,100632.56
2022-08-08T23:17:02.312Z,100627.22
2022-08-08T23:20:27.615Z,100631.50
2022-08-08T23:23:56.152Z,100627.22
2022-08-08T23:27:39.258Z,100628.22
2022-08-08T23:31:04.271Z,100623.72
2022-08-08T23:34:29.464Z,100600.47
2022-08-08T23:38:01.821Z,100616.41
2022-08-08T23:41:28.964Z,100621.31
2022-08-08T23:44:54.290Z,100623.53
2022-08-08T23:49:05.467Z,100609.41
2022-08-08T23:52:08.191Z,100614.13
2022-08-08T23:55:38.375Z,100611.69
2022-08-08T23:59:17.010Z,100611.19
